createdAt,value
2018-12-25T00:02:25.366Z,5.06
2018-12-25T00:05:28.257Z,5.04
2018-12-25T00:08:38.968Z,5.10
2018-12-25T00:11:42.266Z,5.08
2018-12-25T00:14:53.009Z,5.09
2018-12-25T00:17:56.239Z,5.11
2018-12-25T00:21:06.947Z,5.09
2018-12-25T00:24:09.896Z,5.13
2018-12-25T00:27:20.626Z,5.03
2018-12-25T00:30:24.260Z,5.03
2018-12-25T00:33:34.962Z,5.00
2018-12-25T00:36:38.262Z,4.97
2018-12-25T00:39:48.951Z,4.95
2018-12-25T00:42:52.213Z,4.99
2018-12-25T00:46:02.918Z,4.99
2018-12-25T00:49:05.793Z,4.93
2018-12-25T00:52:16.507Z,4.91
2018-12-25T00:55:20.199Z,4.97
2018-12-25T00:58:23.065Z,4.96
2018-12-25T01:01:33.755Z,4.90
2018-12-25T01:04:36.846Z,4.98
2018-12-25T01:07:47.519Z,4.92
2018-12-25T01:10:50.797Z,4.90
2018-12-25T01:14:01.538Z,4.94
2018-12-25T01:17:05.033Z,5.01
2018-12-25T01:20:15.690Z,5.02
2018-12-25T01:23:19.339Z,5.00
2018-12-25T01:26:29.998Z,5.04
2018-12-25T01:29:33.761Z,5.02
2018-12-25T01:32:44.396Z,5.03
2018-12-25T01:35:47.279Z,4.96
2018-12-25T01:38:57.988Z,5.13
2018-12-25T01:42:00.888Z,5.18
2018-12-25T01:45:11.699Z,5.05
2018-12-25T01:48:15.369Z,4.95
2018-12-25T01:51:26.085Z,4.97
2018-12-25T01:54:29.185Z,5.01
2018-12-25T01:57:32.871Z,5.01
2018-12-25T02:00:35.957Z,5.06
2018-12-25T02:03:46.652Z,5.03
2018-12-25T02:06:49.542Z,4.97
2018-12-25T02:10:00.235Z,4.95
2018-12-25T02:13:03.882Z,4.94
2018-12-25T02:16:14.563Z,4.98
2018-12-25T02:19:17.516Z,4.97
2018-12-25T02:22:28.227Z,4.92
2018-12-25T02:25:31.141Z,4.93
2018-12-25T02:28:41.827Z,4.92
2018-12-25T02:31:45.301Z,4.94
2018-12-25T02:34:56.008Z,4.96
2018-12-25T02:37:58.969Z,5.00
2018-12-25T02:41:01.963Z,4.95
2018-12-25T02:44:05.150Z,4.99
2018-12-25T02:47:15.818Z,4.94
2018-12-25T02:50:18.854Z,4.88
2018-12-25T02:53:29.549Z,4.94
2018-12-25T02:56:32.501Z,4.96
2018-12-25T02:59:43.231Z,4.99
2018-12-25T03:02:46.218Z,4.97
2018-12-25T03:05:56.909Z,4.97
2018-12-25T03:09:00.353Z,4.95
2018-12-25T03:12:11.078Z,4.90
2018-12-25T03:15:14.597Z,4.96
2018-12-25T03:18:25.337Z,4.91
2018-12-25T03:21:28.588Z,4.91
2018-12-25T03:24:32.197Z,4.98
2018-12-25T03:27:35.742Z,5.07
2018-12-25T03:30:46.397Z,5.00
2018-12-25T03:33:49.560Z,5.00
2018-12-25T03:37:00.305Z,4.91
2018-12-25T03:40:03.560Z,4.86
2018-12-25T03:43:33.138Z,4.91
2018-12-25T03:46:36.651Z,4.92
2018-12-25T03:49:47.384Z,4.93
2018-12-25T03:52:50.852Z,4.90
2018-12-25T03:55:53.927Z,4.87
2018-12-25T03:59:04.775Z,4.88
2018-12-25T04:02:07.847Z,4.91
2018-12-25T04:05:10.683Z,4.82
2018-12-25T04:08:15.694Z,4.87
2018-12-25T04:11:26.045Z,4.92
2018-12-25T04:14:29.682Z,4.89
2018-12-25T04:17:40.332Z,4.90
2018-12-25T04:20:43.571Z,4.82
2018-12-25T04:23:46.430Z,4.97
2018-12-25T04:26:49.356Z,4.85
2018-12-25T04:30:00.045Z,4.92
2018-12-25T04:33:03.186Z,4.95
2018-12-25T04:36:13.923Z,4.90
2018-12-25T04:39:17.148Z,4.88
2018-12-25T04:42:20.687Z,4.90
2018-12-25T04:45:31.362Z,4.88
2018-12-25T04:48:35.009Z,4.92
2018-12-25T04:51:45.709Z,4.89
2018-12-25T04:54:48.680Z,4.94
2018-12-25T04:57:52.479Z,4.95
2018-12-25T05:00:55.764Z,4.90
2018-12-25T05:04:06.448Z,4.97
2018-12-25T05:07:09.774Z,4.87
2018-12-25T05:10:20.467Z,4.98
2018-12-25T05:13:24.024Z,4.90
2018-12-25T05:16:34.685Z,4.86
2018-12-25T05:19:38.228Z,4.85
2018-12-25T05:22:48.919Z,4.84
2018-12-25T05:25:52.393Z,4.88
2018-12-25T05:29:03.107Z,4.82
2018-12-25T05:32:06.669Z,4.83
2018-12-25T05:35:10.239Z,4.75
2018-12-25T05:38:20.911Z,4.75
2018-12-25T05:41:24.002Z,4.79
2018-12-25T05:44:34.652Z,4.76
2018-12-25T05:47:38.377Z,4.78
2018-12-25T05:50:49.084Z,4.79
2018-12-25T05:53:52.539Z,4.83
2018-12-25T05:57:03.243Z,4.86
2018-12-25T06:00:06.942Z,4.93
2018-12-25T06:03:36.698Z,4.87
2018-12-25T06:06:39.784Z,4.86
2018-12-25T06:09:50.491Z,4.88
2018-12-25T06:12:53.901Z,4.92
2018-12-25T06:16:04.636Z,4.85
2018-12-25T06:19:07.888Z,4.83
2018-12-25T06:22:11.218Z,4.84
2018-12-25T06:25:21.912Z,4.73
2018-12-25T06:28:24.682Z,4.87
2018-12-25T06:34:59.603Z,4.79
2018-12-25T06:38:10.315Z,4.75
2018-12-25T06:41:13.760Z,4.78
2018-12-25T06:44:24.482Z,4.78
2018-12-25T06:47:28.187Z,4.73
2018-12-25T06:50:38.905Z,4.80
2018-12-25T06:53:42.709Z,4.80
2018-12-25T06:56:53.373Z,4.78
2018-12-25T06:59:56.791Z,4.77
2018-12-25T07:02:48.510Z,4.78
2018-12-25T07:05:40.273Z,4.81
2018-12-25T07:08:50.971Z,4.83
2018-12-25T07:11:55.455Z,4.84
2018-12-25T07:14:59.029Z,4.84
2018-12-25T07:18:09.776Z,4.82
2018-12-25T07:21:12.707Z,4.85
2018-12-25T07:24:16.446Z,4.85
2018-12-25T07:27:19.191Z,4.90
2018-12-25T07:30:22.390Z,4.93
2018-12-25T07:33:33.096Z,4.93
2018-12-25T07:36:36.393Z,4.91
2018-12-25T07:39:47.100Z,4.88
2018-12-25T07:42:49.818Z,4.85
2018-12-25T07:45:52.783Z,4.91
2018-12-25T07:49:03.484Z,4.90
2018-12-25T07:52:06.458Z,4.95
2018-12-25T07:55:09.517Z,4.93
2018-12-25T07:58:20.268Z,4.87
2018-12-25T08:01:23.424Z,4.86
2018-12-25T08:04:34.142Z,4.87
2018-12-25T08:07:37.432Z,4.83
2018-12-25T08:10:48.146Z,4.77
2018-12-25T08:13:51.922Z,4.77
2018-12-25T08:17:02.694Z,4.73
2018-12-25T08:20:06.063Z,4.74
2018-12-25T08:23:16.782Z,4.74
2018-12-25T08:26:20.418Z,4.74
2018-12-25T08:29:31.172Z,4.77
2018-12-25T08:32:34.005Z,4.77
2018-12-25T08:35:44.815Z,4.81
2018-12-25T08:38:47.751Z,4.84
2018-12-25T08:41:58.547Z,4.92
2018-12-25T08:45:01.918Z,4.83
2018-12-25T08:48:12.648Z,4.88
2018-12-25T08:51:16.123Z,4.94
2018-12-25T08:54:26.815Z,4.94
2018-12-25T08:57:30.200Z,5.00
2018-12-25T09:00:59.807Z,5.10
2018-12-25T09:04:03.113Z,5.10
2018-12-25T09:07:13.785Z,5.18
2018-12-25T09:10:16.734Z,5.14
2018-12-25T09:13:27.484Z,5.29
2018-12-25T09:16:31.046Z,5.57
2018-12-25T09:19:41.715Z,5.54
2018-12-25T09:22:45.547Z,5.52
2018-12-25T09:25:56.281Z,5.60
2018-12-25T09:28:59.906Z,5.87
2018-12-25T09:32:10.655Z,6.14
2018-12-25T09:35:14.444Z,6.78
2018-12-25T09:38:17.404Z,6.95
2018-12-25T09:41:28.164Z,7.04
2018-12-25T09:44:31.523Z,7.40
2018-12-25T09:47:42.228Z,7.88
2018-12-25T09:50:45.242Z,9.05
2018-12-25T09:53:55.938Z,9.72
2018-12-25T09:56:59.013Z,9.98
2018-12-25T10:00:02.248Z,10.23
2018-12-25T10:03:05.296Z,10.17
2018-12-25T10:06:15.993Z,9.73
2018-12-25T10:09:19.417Z,9.64
2018-12-25T10:12:22.788Z,9.63
2018-12-25T10:15:33.462Z,10.06
2018-12-25T10:18:36.304Z,10.21
2018-12-25T10:21:47.066Z,9.99
2018-12-25T10:24:51.420Z,10.26
2018-12-25T10:28:02.153Z,10.38
2018-12-25T10:31:05.684Z,10.89
2018-12-25T10:34:16.388Z,10.57
2018-12-25T10:37:19.910Z,11.40
2018-12-25T10:40:30.632Z,12.76
2018-12-25T10:43:34.937Z,13.44
2018-12-25T10:46:45.734Z,13.08
2018-12-25T10:49:49.262Z,13.42
2018-12-25T10:52:59.991Z,12.78
2018-12-25T10:56:03.182Z,11.82
2018-12-25T10:59:06.585Z,10.88
2018-12-25T11:02:10.392Z,10.19
2018-12-25T11:05:21.083Z,9.03
2018-12-25T11:08:24.079Z,8.69
2018-12-25T11:15:06.708Z,8.28
2018-12-25T11:18:10.042Z,8.30
2018-12-25T11:21:12.969Z,8.57
2018-12-25T11:24:16.731Z,9.06
2018-12-25T11:27:19.516Z,9.52
2018-12-25T11:30:30.259Z,9.56
2018-12-25T11:33:33.281Z,9.69
2018-12-25T11:36:44.058Z,9.62
2018-12-25T11:39:49.590Z,9.08
2018-12-25T11:42:59.893Z,9.15
2018-12-25T11:46:03.224Z,8.86
2018-12-25T11:49:13.965Z,8.91
2018-12-25T11:52:17.585Z,8.51
2018-12-25T11:58:25.017Z,8.32
2018-12-25T12:01:28.403Z,8.20
2018-12-25T12:04:31.814Z,7.84
2018-12-25T12:07:34.912Z,7.86
2018-12-25T12:10:45.585Z,7.85
2018-12-25T12:13:48.793Z,7.80
2018-12-25T12:16:59.508Z,7.84
2018-12-25T12:20:02.698Z,7.86
2018-12-25T12:23:13.383Z,7.94
2018-12-25T12:26:16.881Z,8.05
2018-12-25T12:29:27.536Z,7.89
2018-12-25T12:32:30.503Z,8.01
2018-12-25T12:35:41.185Z,8.18
2018-12-25T12:41:35.326Z,8.19
2018-12-25T12:44:38.360Z,8.18
2018-12-25T12:47:41.352Z,8.39
2018-12-25T12:50:51.759Z,8.61
2018-12-25T12:53:54.288Z,8.81
2018-12-25T12:56:57.631Z,8.92
2018-12-25T13:00:08.751Z,9.45
2018-12-25T13:03:11.584Z,10.51
2018-12-25T13:06:21.873Z,12.04
2018-12-25T13:09:25.078Z,13.23
2018-12-25T13:12:35.375Z,13.30
2018-12-25T13:15:38.176Z,12.32
2018-12-25T13:18:41.589Z,10.80
2018-12-25T13:21:51.886Z,10.16
2018-12-25T13:24:55.338Z,9.48
2018-12-25T13:28:05.633Z,8.91
2018-12-25T13:31:08.616Z,8.63
2018-12-25T13:34:18.885Z,8.24
2018-12-25T13:37:22.060Z,7.69
2018-12-25T13:40:33.243Z,7.53
2018-12-25T13:43:36.688Z,7.25
2018-12-25T13:50:29.815Z,7.24
2018-12-25T13:57:08.071Z,7.02
2018-12-25T14:00:11.030Z,6.96
2018-12-25T14:03:13.921Z,7.01
2018-12-25T14:06:16.586Z,6.99
2018-12-25T14:09:26.891Z,7.02
2018-12-25T14:12:29.523Z,7.03
2018-12-25T14:15:32.611Z,6.90
2018-12-25T14:18:42.931Z,6.76
2018-12-25T14:21:45.797Z,6.68
2018-12-25T14:24:56.079Z,6.64
2018-12-25T14:27:59.275Z,6.55
2018-12-25T14:31:09.563Z,6.48
2018-12-25T14:34:12.917Z,6.51
2018-12-25T14:37:23.192Z,6.51
2018-12-25T14:40:26.244Z,6.54
2018-12-25T14:43:36.638Z,6.52
2018-12-25T14:46:39.989Z,6.35
2018-12-25T14:49:50.257Z,6.41
2018-12-25T14:52:53.291Z,6.35
2018-12-25T14:56:03.593Z,6.30
2018-12-25T14:59:06.128Z,6.27
2018-12-25T15:02:16.418Z,6.30
2018-12-25T15:05:19.171Z,6.28
2018-12-25T15:08:29.450Z,6.27
2018-12-25T15:11:32.865Z,6.31
2018-12-25T15:14:43.344Z,6.28
2018-12-25T15:17:46.820Z,6.17
2018-12-25T15:20:50.265Z,6.02
2018-12-25T15:24:00.559Z,5.93
2018-12-25T15:27:03.266Z,5.88
2018-12-25T15:30:06.761Z,5.84
2018-12-25T15:33:16.986Z,5.72
2018-12-25T15:36:20.325Z,5.71
2018-12-25T15:39:30.581Z,5.66
2018-12-25T15:42:33.480Z,5.71
2018-12-25T15:45:36.245Z,5.71
2018-12-25T15:48:39.205Z,5.69
2018-12-25T15:51:49.534Z,5.69
2018-12-25T15:54:52.943Z,5.61
2018-12-25T15:58:03.211Z,5.71
2018-12-25T16:01:06.003Z,5.55
2018-12-25T16:04:10.441Z,5.58
2018-12-25T16:07:13.163Z,5.57
2018-12-25T16:10:23.471Z,5.61
2018-12-25T16:13:26.838Z,5.61
2018-12-25T16:16:37.113Z,5.56
2018-12-25T16:19:39.604Z,5.55
2018-12-25T16:22:49.868Z,5.55
2018-12-25T16:25:52.454Z,5.57
2018-12-25T16:29:02.739Z,5.51
2018-12-25T16:32:05.560Z,5.48
2018-12-25T16:35:15.856Z,5.48
2018-12-25T16:38:18.389Z,5.47
2018-12-25T16:41:28.671Z,5.42
2018-12-25T16:44:31.872Z,5.41
2018-12-25T16:47:42.143Z,5.48
2018-12-25T16:50:44.903Z,5.46
2018-12-25T16:53:55.236Z,5.42
2018-12-25T16:56:58.187Z,5.40
2018-12-25T17:00:09.015Z,5.38
2018-12-25T17:03:12.464Z,5.41
2018-12-25T17:06:15.306Z,5.43
2018-12-25T17:09:18.466Z,5.41
2018-12-25T17:12:28.794Z,5.41
2018-12-25T17:15:31.341Z,5.38
2018-12-25T17:18:41.678Z,5.39
2018-12-25T17:21:44.119Z,5.42
2018-12-25T17:24:54.463Z,5.45
2018-12-25T17:27:57.750Z,5.37
2018-12-25T17:31:08.087Z,5.37
2018-12-25T17:34:10.786Z,5.38
2018-12-25T17:37:13.729Z,5.32
2018-12-25T17:40:24.044Z,5.29
2018-12-25T17:43:26.964Z,5.31
2018-12-25T17:46:37.249Z,5.32
2018-12-25T17:49:39.949Z,5.33
2018-12-25T17:52:50.300Z,5.24
2018-12-25T17:55:52.830Z,5.31
2018-12-25T17:59:03.171Z,5.21
2018-12-25T18:02:05.861Z,5.13
2018-12-25T18:05:12.127Z,5.18
2018-12-25T18:08:20.787Z,5.15
2018-12-25T18:11:23.701Z,5.09
2018-12-25T18:14:26.400Z,5.18
2018-12-25T18:17:36.739Z,5.13
2018-12-25T18:20:40.120Z,5.04
2018-12-25T18:23:43.086Z,5.06
2018-12-25T18:26:53.387Z,5.04
2018-12-25T18:29:56.673Z,5.02
2018-12-25T18:32:59.852Z,5.04
2018-12-25T18:36:10.156Z,5.03
2018-12-25T18:39:13.208Z,5.00
2018-12-25T18:42:23.613Z,5.14
2018-12-25T18:45:26.841Z,5.12
2018-12-25T18:48:37.189Z,5.01
2018-12-25T18:51:40.659Z,4.97
2018-12-25T18:54:50.948Z,4.94
2018-12-25T18:57:53.447Z,4.95
2018-12-25T19:01:03.744Z,4.88
2018-12-25T19:04:06.545Z,4.88
2018-12-25T19:07:16.807Z,4.87
2018-12-25T19:10:20.240Z,4.83
2018-12-25T19:13:30.509Z,4.81
2018-12-25T19:16:33.796Z,4.81
2018-12-25T19:19:36.717Z,4.82
2018-12-25T19:22:47.001Z,4.81
2018-12-25T19:25:50.318Z,4.75
2018-12-25T19:29:00.559Z,4.89
2018-12-25T19:32:03.388Z,4.93
2018-12-25T19:35:13.703Z,4.81
2018-12-25T19:38:16.423Z,4.76
2018-12-25T19:41:19.854Z,4.67
2018-12-25T19:44:30.163Z,4.71
2018-12-25T19:47:33.072Z,4.64
2018-12-25T19:50:43.375Z,4.65
2018-12-25T19:53:46.445Z,4.68
2018-12-25T19:56:56.762Z,4.73
2018-12-25T19:59:59.507Z,4.64
2018-12-25T20:03:21.736Z,4.59
2018-12-25T20:06:46.397Z,4.58
2018-12-25T20:10:08.275Z,4.50
2018-12-25T20:13:56.728Z,4.49
2018-12-25T20:17:10.432Z,4.44
2018-12-25T20:20:58.825Z,4.36
2018-12-25T20:24:06.555Z,4.25
2018-12-25T20:27:16.407Z,4.14
2018-12-25T20:31:04.774Z,4.12
2018-12-25T20:34:26.541Z,4.02
2018-12-25T20:38:14.939Z,3.91
2018-12-25T20:41:40.149Z,3.86
2018-12-25T20:45:28.556Z,3.84
2018-12-25T20:48:50.775Z,3.76
2018-12-25T20:52:12.656Z,3.71
2018-12-25T20:56:01.027Z,3.75
2018-12-25T20:59:23.146Z,3.75
2018-12-25T21:03:11.535Z,3.65
2018-12-25T21:06:33.309Z,3.58
2018-12-25T21:10:21.646Z,3.53
2018-12-25T21:13:43.661Z,3.54
2018-12-25T21:17:32.016Z,3.50
2018-12-25T21:24:59.187Z,3.49
2018-12-25T21:28:01.008Z,3.42
2018-12-25T21:31:04.100Z,3.40
2018-12-25T21:34:14.467Z,3.42
2018-12-25T21:37:17.204Z,3.36
2018-12-25T21:40:28.204Z,3.38
2018-12-25T21:43:31.105Z,3.27
2018-12-25T21:50:05.045Z,3.17
2018-12-25T21:53:15.337Z,3.09
2018-12-25T21:56:18.152Z,3.08
2018-12-25T21:59:28.454Z,3.01
2018-12-25T22:02:31.826Z,3.01
2018-12-25T22:05:42.128Z,3.07
2018-12-25T22:08:44.952Z,2.99
2018-12-25T22:11:49.777Z,2.89
2018-12-25T22:15:00.156Z,2.91
2018-12-25T22:18:02.944Z,2.86
2018-12-25T22:21:13.273Z,2.78
2018-12-25T22:24:16.147Z,2.77
2018-12-25T22:27:26.558Z,2.79
2018-12-25T22:30:29.079Z,2.90
2018-12-25T22:33:39.347Z,2.75
2018-12-25T22:36:42.186Z,2.69
2018-12-25T22:39:52.510Z,2.72
2018-12-25T22:42:55.738Z,2.65
2018-12-25T22:45:58.996Z,2.59
2018-12-25T22:49:09.247Z,2.64
2018-12-25T22:52:12.852Z,2.54
2018-12-25T22:55:23.284Z,2.49
2018-12-25T22:58:25.830Z,2.50
2018-12-25T23:01:36.103Z,2.48
2018-12-25T23:04:38.839Z,2.50
2018-12-25T23:07:49.094Z,2.55
2018-12-25T23:10:51.957Z,2.50
2018-12-25T23:14:02.216Z,2.40
2018-12-25T23:17:04.815Z,2.37
2018-12-25T23:20:15.073Z,2.41
2018-12-25T23:23:17.922Z,2.38
2018-12-25T23:26:28.219Z,2.38
2018-12-25T23:29:30.801Z,2.42
2018-12-25T23:32:41.162Z,2.40
2018-12-25T23:35:44.018Z,2.41
2018-12-25T23:38:54.287Z,2.32
2018-12-25T23:41:56.867Z,2.32
2018-12-25T23:45:07.320Z,2.29
2018-12-25T23:48:10.129Z,2.37
2018-12-25T23:51:20.442Z,2.35
2018-12-25T23:54:23.811Z,2.29
2018-12-25T23:57:34.111Z,2.25
